createdAt,value
2019-01-14T00:03:20.168Z,3.02
2019-01-14T00:08:27.262Z,3.30
2019-01-14T00:13:36.812Z,3.40
2019-01-14T00:18:44.832Z,3.23
2019-01-14T00:23:50.608Z,3.23
2019-01-14T00:28:59.296Z,2.77
2019-01-14T00:34:13.405Z,3.87
2019-01-14T00:39:22.906Z,4.07
2019-01-14T00:44:32.378Z,3.23
2019-01-14T00:49:40.748Z,3.27
2019-01-14T00:54:48.077Z,2.80
2019-01-14T00:59:55.112Z,4.33
2019-01-14T01:05:02.488Z,2.97
2019-01-14T01:10:09.219Z,3.73
2019-01-14T01:15:19.337Z,3.23
2019-01-14T01:20:28.069Z,4.03
2019-01-14T01:25:33.749Z,3.10
2019-01-14T01:30:42.063Z,4.27
2019-01-14T01:35:52.911Z,3.53
2019-01-14T01:41:02.288Z,3.57
2019-01-14T01:46:09.102Z,3.10
2019-01-14T01:51:18.581Z,2.87
2019-01-14T01:56:26.479Z,3.13
2019-01-14T02:01:36.826Z,3.47
2019-01-14T02:06:42.078Z,2.13
2019-01-14T02:12:00.223Z,2.30
2019-01-14T02:17:08.544Z,2.13
2019-01-14T02:22:15.691Z,2.23
2019-01-14T02:27:25.348Z,2.20
2019-01-14T02:32:35.458Z,2.67
2019-01-14T02:37:42.959Z,2.40
2019-01-14T02:42:53.597Z,2.30
2019-01-14T02:48:04.776Z,2.00
2019-01-14T02:53:13.450Z,2.63
2019-01-14T02:58:23.537Z,1.77
2019-01-14T03:03:29.741Z,1.77
2019-01-14T03:08:37.617Z,2.83
2019-01-14T03:13:46.855Z,2.23
2019-01-14T03:18:56.448Z,3.07
2019-01-14T03:24:02.448Z,1.80
2019-01-14T03:29:11.271Z,2.37
2019-01-14T03:34:22.899Z,2.40
2019-01-14T03:39:31.055Z,2.30
2019-01-14T03:44:37.498Z,2.00
2019-01-14T03:49:44.603Z,1.57
2019-01-14T03:54:51.043Z,2.30
2019-01-14T03:59:58.436Z,1.87
2019-01-14T04:05:26.860Z,2.43
2019-01-14T04:10:35.561Z,2.03
2019-01-14T04:15:44.587Z,2.10
2019-01-14T04:20:55.358Z,2.67
2019-01-14T04:26:04.921Z,2.73
2019-01-14T04:31:14.022Z,2.40
2019-01-14T04:36:21.867Z,1.75
2019-01-14T04:41:31.397Z,2.03
2019-01-14T04:46:43.047Z,2.20
2019-01-14T04:51:51.902Z,2.60
2019-01-14T04:57:01.484Z,1.80
2019-01-14T05:02:09.834Z,2.37
2019-01-14T05:07:20.779Z,1.70
2019-01-14T05:13:41.988Z,1.40
2019-01-14T05:18:51.488Z,1.60
2019-01-14T05:24:01.065Z,1.30
2019-01-14T05:29:09.950Z,1.40
2019-01-14T05:34:20.397Z,1.10
2019-01-14T05:39:27.710Z,1.30
2019-01-14T05:44:34.733Z,1.27
2019-01-14T05:49:44.387Z,1.97
2019-01-14T05:54:53.090Z,1.40
2019-01-14T06:00:00.277Z,1.65
2019-01-14T06:05:07.167Z,2.17
2019-01-14T06:10:18.462Z,3.22
2019-01-14T06:15:29.092Z,1.83
2019-01-14T06:20:41.313Z,1.90
2019-01-14T06:25:50.481Z,1.77
2019-01-14T06:30:58.630Z,2.03
2019-01-14T06:36:06.648Z,1.27
2019-01-14T06:41:16.462Z,1.80
2019-01-14T06:46:24.929Z,3.10
2019-01-14T06:51:32.863Z,3.47
2019-01-14T06:56:41.185Z,2.50
2019-01-14T07:01:50.215Z,3.43
2019-01-14T07:06:57.542Z,3.43
2019-01-14T07:12:07.271Z,2.80
2019-01-14T07:17:15.542Z,3.47
2019-01-14T07:22:26.722Z,2.92
2019-01-14T07:27:33.380Z,3.40
2019-01-14T07:32:44.775Z,2.93
2019-01-14T07:37:51.398Z,3.03
2019-01-14T07:42:59.980Z,3.27
2019-01-14T07:48:09.890Z,2.30
2019-01-14T07:53:20.385Z,2.37
2019-01-14T07:58:28.137Z,1.90
2019-01-14T08:03:36.797Z,1.60
2019-01-14T08:08:44.762Z,1.87
2019-01-14T08:13:54.343Z,2.60
2019-01-14T08:19:02.656Z,2.33
2019-01-14T08:24:10.881Z,2.30
2019-01-14T08:29:19.227Z,2.02
2019-01-14T08:34:27.432Z,1.85
2019-01-14T08:39:36.998Z,2.03
2019-01-14T08:44:45.500Z,1.93
2019-01-14T08:49:55.504Z,1.67
2019-01-14T08:55:04.260Z,2.13
2019-01-14T09:00:16.493Z,2.43
2019-01-14T09:05:22.973Z,3.10
2019-01-14T09:10:33.922Z,3.40
2019-01-14T09:15:41.312Z,2.97
2019-01-14T09:20:53.863Z,1.60
2019-01-14T09:26:10.599Z,2.27
2019-01-14T09:31:22.307Z,1.75
2019-01-14T09:36:34.004Z,1.70
2019-01-14T09:41:51.769Z,1.60
2019-01-14T09:47:05.380Z,1.70
2019-01-14T09:52:17.990Z,2.45
2019-01-14T09:57:31.494Z,2.07
2019-01-14T10:02:40.471Z,2.10
2019-01-14T10:07:45.851Z,1.60
2019-01-14T10:12:54.817Z,1.80
2019-01-14T10:18:10.197Z,2.13
2019-01-14T10:23:22.791Z,1.67
2019-01-14T10:28:31.203Z,2.13
2019-01-14T10:33:40.995Z,2.25
2019-01-14T10:38:51.086Z,1.60
2019-01-14T10:44:00.924Z,1.27
2019-01-14T10:49:17.164Z,1.57
2019-01-14T10:54:32.803Z,1.30
2019-01-14T10:59:44.354Z,1.70
2019-01-14T11:05:00.035Z,1.30
2019-01-14T11:10:13.812Z,1.45
2019-01-14T11:15:23.189Z,1.40
2019-01-14T11:20:38.660Z,1.47
2019-01-14T11:25:47.705Z,1.30
2019-01-14T11:30:57.958Z,1.53
2019-01-14T11:36:07.809Z,1.60
2019-01-14T11:41:18.960Z,0.93
2019-01-14T11:46:27.803Z,1.70
2019-01-14T11:51:43.537Z,2.00
2019-01-14T11:56:52.300Z,1.97
2019-01-14T12:02:06.190Z,1.57
2019-01-14T12:07:18.813Z,1.72
2019-01-14T12:12:29.573Z,1.40
2019-01-14T12:17:40.307Z,1.47
2019-01-14T12:22:50.209Z,1.05
2019-01-14T12:28:01.936Z,1.77
2019-01-14T12:33:16.303Z,1.80
2019-01-14T12:38:27.251Z,1.37
2019-01-14T12:43:39.140Z,1.42
2019-01-14T12:48:51.927Z,1.43
2019-01-14T12:54:03.761Z,1.50
2019-01-14T12:59:15.436Z,1.67
2019-01-14T13:04:28.140Z,1.30
2019-01-14T13:09:42.008Z,1.52
2019-01-14T13:14:53.367Z,1.23
2019-01-14T13:20:09.133Z,1.23
2019-01-14T13:25:20.641Z,1.00
2019-01-14T13:30:36.388Z,1.23
2019-01-14T13:35:47.133Z,0.90
2019-01-14T13:41:00.003Z,1.10
2019-01-14T13:46:09.736Z,0.98
2019-01-14T13:51:17.532Z,1.42
2019-01-14T13:56:26.825Z,1.60
2019-01-14T14:01:35.434Z,1.37
2019-01-14T14:06:48.842Z,1.40
2019-01-14T14:12:00.867Z,0.93
2019-01-14T14:17:09.156Z,1.30
2019-01-14T14:22:15.652Z,1.55
2019-01-14T14:27:32.135Z,1.30
2019-01-14T14:32:50.897Z,1.80
2019-01-14T14:38:02.595Z,1.47
2019-01-14T14:43:17.761Z,1.73
2019-01-14T14:48:32.611Z,1.53
2019-01-14T14:53:43.493Z,1.80
2019-01-14T14:58:51.601Z,1.53
2019-01-14T15:04:01.452Z,1.37
2019-01-14T15:09:15.049Z,1.67
2019-01-14T15:14:27.106Z,1.70
2019-01-14T15:19:37.797Z,1.50
2019-01-14T15:24:48.752Z,1.40
2019-01-14T15:29:59.805Z,2.00
2019-01-14T15:35:09.550Z,1.70
2019-01-14T15:40:21.474Z,1.35
2019-01-14T15:45:30.502Z,1.97
2019-01-14T15:50:42.371Z,1.90
2019-01-14T15:55:49.741Z,1.33
2019-01-14T16:01:03.403Z,2.53
2019-01-14T16:06:10.426Z,2.23
2019-01-14T16:11:17.659Z,2.13
2019-01-14T16:16:27.529Z,2.40
2019-01-14T16:21:42.880Z,2.20
2019-01-14T16:26:53.603Z,1.27
2019-01-14T16:32:04.716Z,1.30
2019-01-14T16:37:13.698Z,1.10
2019-01-14T16:42:27.240Z,1.03
2019-01-14T16:47:38.877Z,1.00
2019-01-14T16:52:58.722Z,1.20
2019-01-14T16:58:09.735Z,1.10
2019-01-14T17:03:29.267Z,1.60
2019-01-14T17:08:40.870Z,1.87
2019-01-14T17:13:47.274Z,1.37
2019-01-14T17:18:55.442Z,1.40
2019-01-14T17:24:04.788Z,2.03
2019-01-14T17:29:14.316Z,1.87
2019-01-14T17:34:26.896Z,1.35
2019-01-14T17:39:42.257Z,1.73
2019-01-14T17:44:56.626Z,1.60
2019-01-14T17:50:06.655Z,1.43
2019-01-14T17:55:14.544Z,1.98
2019-01-14T18:00:29.351Z,2.37
2019-01-14T18:05:42.258Z,2.00
2019-01-14T18:10:53.256Z,2.10
2019-01-14T18:16:04.291Z,2.00
2019-01-14T18:21:14.225Z,2.37
2019-01-14T18:26:26.346Z,2.10
2019-01-14T18:31:39.883Z,2.43
2019-01-14T18:36:48.485Z,2.73
2019-01-14T18:41:56.461Z,3.03
2019-01-14T18:47:04.548Z,3.07
2019-01-14T18:52:12.122Z,2.43
2019-01-14T18:57:23.682Z,2.87
2019-01-14T19:02:37.225Z,2.17
2019-01-14T19:07:50.315Z,1.93
2019-01-14T19:12:57.518Z,1.83
2019-01-14T19:18:07.431Z,1.92
2019-01-14T19:23:17.699Z,3.00
2019-01-14T19:28:29.492Z,2.37
2019-01-14T19:33:40.312Z,2.23
2019-01-14T19:38:53.554Z,2.80
2019-01-14T19:44:04.771Z,2.33
2019-01-14T19:49:19.785Z,3.50
2019-01-14T19:54:31.530Z,3.87
2019-01-14T19:59:41.473Z,2.20
2019-01-14T20:04:52.432Z,2.60
2019-01-14T20:10:01.664Z,2.47
2019-01-14T20:15:12.371Z,3.90
2019-01-14T20:20:27.025Z,3.53
2019-01-14T20:25:36.382Z,3.90
2019-01-14T20:30:48.041Z,2.97
2019-01-14T20:36:00.713Z,3.20
2019-01-14T20:41:17.575Z,2.80
2019-01-14T20:46:26.393Z,2.52
2019-01-14T20:51:37.476Z,2.67
2019-01-14T20:56:50.026Z,3.07
2019-01-14T21:02:04.461Z,3.10
2019-01-14T21:07:16.203Z,3.37
2019-01-14T21:12:33.411Z,2.83
2019-01-14T21:17:50.540Z,2.23
2019-01-14T21:23:01.281Z,3.10
2019-01-14T21:28:09.373Z,2.40
2019-01-14T21:33:17.707Z,2.87
2019-01-14T21:38:32.612Z,2.87
2019-01-14T21:43:44.390Z,3.07
2019-01-14T21:48:57.926Z,2.60
2019-01-14T21:54:13.609Z,2.67
2019-01-14T21:59:23.404Z,2.50
2019-01-14T22:04:36.899Z,3.07
2019-01-14T22:09:44.964Z,2.97
2019-01-14T22:14:55.376Z,4.07
2019-01-14T22:20:07.557Z,2.80
2019-01-14T22:25:15.309Z,2.58
2019-01-14T22:30:32.167Z,2.47
2019-01-14T22:35:44.111Z,2.77
2019-01-14T22:40:54.217Z,2.97
2019-01-14T22:46:05.892Z,3.20
2019-01-14T22:51:17.624Z,3.20
2019-01-14T22:56:33.336Z,3.27
2019-01-14T23:01:51.664Z,3.23
2019-01-14T23:06:59.305Z,3.47
2019-01-14T23:12:11.155Z,2.90
2019-01-14T23:17:23.782Z,3.23
2019-01-14T23:22:32.966Z,2.77
2019-01-14T23:27:44.134Z,2.77
2019-01-14T23:32:59.371Z,2.67
2019-01-14T23:38:14.924Z,2.50
2019-01-14T23:43:28.360Z,2.60
2019-01-14T23:48:42.882Z,2.60
2019-01-14T23:53:58.371Z,3.40
2019-01-14T23:59:07.566Z,3.97
